Cumberland, MD

12:59 PM EST on February 27, 2015 (GMT -0500)
Eastern W Va Regional-Shepherd | Change Station
CLOSE
Current Station
Airport
Location: Martinsburg,
Elevation: 531 ft
Nearby Weather Stations

Elev 531 ft 39.40 °N, 77.98 °W | Updated 6 minutes ago

Clear
Clear
28 °F
Feels Like 23 °F
N
5
Wind Variable Wind from Variable

Today
High -- | Low -- °F
--% Chance of Precip.
Yesterday
High -- | Low -- °F
Precip. -- in
6:51 AM 6:04 PM
Waxing Gibbous, 70% visible
Pressure 30.46 in
Visibility 10.0 miles
Clouds Clear
Windchill 23 °F
Dew Point 7 °F
Humidity 41%
Rainfall 0.00 in
Snow Depth Not available.
UV 5 out of 12
Pollen .50 out of 12
Air Quality Not available.
Flu Activity Not available.
METAR KMRB 271753Z VRB04KT 10SM CLR M02/M14 A3044 RMK AO2 SLP314 T10221139 11022 21061 50003

More Conditions Fewer Conditions

Pressure 30.46 in
Visibility 10.0 miles
Clouds Clear
Windchill 23 °F
Dew Point 7 °F
Humidity 41%
Rainfall 0.00 in
Snow Depth Not available.
UV 5 out of 12
Pollen .50 out of 12
Air Quality Not available.
Flu Activity Not available.
METAR KMRB 271753Z VRB04KT 10SM CLR M02/M14 A3044 RMK AO2 SLP314 T10221139 11022 21061 50003

More Conditions Fewer Conditions

10-Day Weather Forecast

Almanac

Astronomy

Feb. 27, 2015 Rise Set
Actual Time
Civil Twilight
Nautical Twilight
Astronomical Twilight
Moon
Length of Visible Light
Length of Day
Tomorrow will be .
, % of the Moon is Illuminated

Today's Extremes

State Highs State Lows

Community

WunderPhotos

Upload Photos

1,800,758 photos uploaded!

WunderBlogs® & News

Nearby

Air Quality

  Air Quality AQ Index Pollutant
Not available.

Snow Depth

Station Depth Elevation

Earthquake Activity

City Distance Mag. Time & Date
Minimum magnitude displayed is 2.5.

Coastal Water Temperatures

Place Temperature

Nearby Weather Stations